sensor_id;sensor_type;location;lat;lon;timestamp;P1;durP1;ratioP1;P2;durP2;ratioP2
6580;SDS011;3324;50.796;7.228;2023-07-31T00:00:30;11.40;;;10.90;;
6580;SDS011;3324;50.796;7.228;2023-07-31T00:02:56;11.30;;;10.70;;
6580;SDS011;3324;50.796;7.228;2023-07-31T00:05:22;11.30;;;10.70;;
6580;SDS011;3324;50.796;7.228;2023-07-31T00:07:48;11.10;;;10.60;;
6580;SDS011;3324;50.796;7.228;2023-07-31T00:10:13;11.05;;;10.55;;
6580;SDS011;3324;50.796;7.228;2023-07-31T00:12:40;11.20;;;10.70;;
6580;SDS011;3324;50.796;7.228;2023-07-31T00:15:07;11.40;;;10.90;;
6580;SDS011;3324;50.796;7.228;2023-07-31T00:17:33;11.50;;;11.00;;
6580;SDS011;3324;50.796;7.228;2023-07-31T00:19:59;10.50;;;10.10;;
6580;SDS011;3324;50.796;7.228;2023-07-31T00:22:24;11.65;;;10.95;;
6580;SDS011;3324;50.796;7.228;2023-07-31T00:24:50;10.80;;;10.40;;
6580;SDS011;3324;50.796;7.228;2023-07-31T00:27:16;10.90;;;10.50;;
6580;SDS011;3324;50.796;7.228;2023-07-31T00:29:41;11.90;;;11.20;;
6580;SDS011;3324;50.796;7.228;2023-07-31T00:32:07;11.20;;;10.70;;
6580;SDS011;3324;50.796;7.228;2023-07-31T00:34:32;10.30;;;10.00;;
6580;SDS011;3324;50.796;7.228;2023-07-31T00:36:58;11.40;;;10.80;;
6580;SDS011;3324;50.796;7.228;2023-07-31T00:39:23;10.70;;;10.30;;
6580;SDS011;3324;50.796;7.228;2023-07-31T00:41:49;10.40;;;10.00;;
6580;SDS011;3324;50.796;7.228;2023-07-31T00:44:15;11.30;;;10.70;;
6580;SDS011;3324;50.796;7.228;2023-07-31T00:46:40;10.70;;;10.30;;
6580;SDS011;3324;50.796;7.228;2023-07-31T00:49:06;11.00;;;10.60;;
6580;SDS011;3324;50.796;7.228;2023-07-31T00:51:33;11.05;;;10.55;;
6580;SDS011;3324;50.796;7.228;2023-07-31T00:53:59;11.30;;;10.80;;
6580;SDS011;3324;50.796;7.228;2023-07-31T00:56:25;11.90;;;11.20;;
6580;SDS011;3324;50.796;7.228;2023-07-31T00:58:51;9.80;;;9.50;;
6580;SDS011;3324;50.796;7.228;2023-07-31T01:01:16;8.80;;;8.60;;
6580;SDS011;3324;50.796;7.228;2023-07-31T01:03:42;10.15;;;9.85;;
6580;SDS011;3324;50.796;7.228;2023-07-31T01:06:23;8.70;;;8.50;;
6580;SDS011;3324;50.796;7.228;2023-07-31T01:09:20;8.80;;;8.60;;
6580;SDS011;3324;50.796;7.228;2023-07-31T01:11:56;8.90;;;8.70;;
6580;SDS011;3324;50.796;7.228;2023-07-31T01:14:25;10.75;;;10.25;;
6580;SDS011;3324;50.796;7.228;2023-07-31T01:16:50;9.73;;;9.33;;
6580;SDS011;3324;50.796;7.228;2023-07-31T01:19:17;8.60;;;8.40;;
6580;SDS011;3324;50.796;7.228;2023-07-31T01:22:08;9.20;;;9.00;;
6580;SDS011;3324;50.796;7.228;2023-07-31T01:27:30;9.85;;;9.45;;
6580;SDS011;3324;50.796;7.228;2023-07-31T01:30:21;9.50;;;9.30;;
6580;SDS011;3324;50.796;7.228;2023-07-31T01:32:50;9.40;;;9.20;;
6580;SDS011;3324;50.796;7.228;2023-07-31T01:35:18;9.32;;;9.13;;
6580;SDS011;3324;50.796;7.228;2023-07-31T01:37:45;10.55;;;10.05;;
6580;SDS011;3324;50.796;7.228;2023-07-31T01:40:11;10.43;;;9.93;;
6580;SDS011;3324;50.796;7.228;2023-07-31T01:42:36;7.70;;;7.60;;
6580;SDS011;3324;50.796;7.228;2023-07-31T01:45:02;8.60;;;8.40;;
6580;SDS011;3324;50.796;7.228;2023-07-31T01:47:27;8.90;;;8.70;;
6580;SDS011;3324;50.796;7.228;2023-07-31T01:49:53;10.15;;;9.65;;
6580;SDS011;3324;50.796;7.228;2023-07-31T01:52:19;10.00;;;9.70;;
6580;SDS011;3324;50.796;7.228;2023-07-31T01:54:44;8.10;;;8.00;;
6580;SDS011;3324;50.796;7.228;2023-07-31T01:57:10;10.10;;;9.70;;
6580;SDS011;3324;50.796;7.228;2023-07-31T01:59:35;8.60;;;8.40;;
6580;SDS011;3324;50.796;7.228;2023-07-31T02:02:01;8.40;;;8.20;;
6580;SDS011;3324;50.796;7.228;2023-07-31T02:04:26;10.30;;;9.80;;
6580;SDS011;3324;50.796;7.228;2023-07-31T02:06:52;9.30;;;9.10;;
6580;SDS011;3324;50.796;7.228;2023-07-31T02:09:18;8.80;;;8.60;;
6580;SDS011;3324;50.796;7.228;2023-07-31T02:11:44;8.60;;;8.40;;
6580;SDS011;3324;50.796;7.228;2023-07-31T02:14:10;10.00;;;9.60;;
6580;SDS011;3324;50.796;7.228;2023-07-31T02:16:35;8.83;;;8.63;;
6580;SDS011;3324;50.796;7.228;2023-07-31T02:19:01;9.50;;;9.30;;
6580;SDS011;3324;50.796;7.228;2023-07-31T02:21:26;11.60;;;10.90;;
6580;SDS011;3324;50.796;7.228;2023-07-31T02:23:52;11.13;;;10.63;;
6580;SDS011;3324;50.796;7.228;2023-07-31T02:26:17;11.10;;;10.60;;
6580;SDS011;3324;50.796;7.228;2023-07-31T02:28:43;11.55;;;10.85;;
6580;SDS011;3324;50.796;7.228;2023-07-31T02:31:08;11.10;;;10.60;;
6580;SDS011;3324;50.796;7.228;2023-07-31T02:33:34;10.80;;;10.30;;
6580;SDS011;3324;50.796;7.228;2023-07-31T02:36:00;11.50;;;10.80;;
6580;SDS011;3324;50.796;7.228;2023-07-31T02:38:25;10.80;;;10.40;;
6580;SDS011;3324;50.796;7.228;2023-07-31T02:40:51;10.65;;;10.25;;
6580;SDS011;3324;50.796;7.228;2023-07-31T02:43:17;11.20;;;10.70;;
6580;SDS011;3324;50.796;7.228;2023-07-31T02:45:42;11.50;;;10.80;;
6580;SDS011;3324;50.796;7.228;2023-07-31T02:48:08;11.30;;;10.80;;
6580;SDS011;3324;50.796;7.228;2023-07-31T02:50:33;11.20;;;10.70;;
6580;SDS011;3324;50.796;7.228;2023-07-31T02:52:59;11.30;;;10.70;;
6580;SDS011;3324;50.796;7.228;2023-07-31T02:55:25;11.00;;;10.60;;
6580;SDS011;3324;50.796;7.228;2023-07-31T02:57:50;10.00;;;9.70;;
6580;SDS011;3324;50.796;7.228;2023-07-31T03:00:17;10.20;;;9.90;;
6580;SDS011;3324;50.796;7.228;2023-07-31T03:02:43;11.20;;;10.60;;
6580;SDS011;3324;50.796;7.228;2023-07-31T03:05:08;10.70;;;10.30;;
6580;SDS011;3324;50.796;7.228;2023-07-31T03:07:34;10.80;;;10.40;;
6580;SDS011;3324;50.796;7.228;2023-07-31T03:09:59;11.40;;;10.80;;
6580;SDS011;3324;50.796;7.228;2023-07-31T03:12:25;11.15;;;10.65;;
6580;SDS011;3324;50.796;7.228;2023-07-31T03:14:51;10.80;;;10.40;;
6580;SDS011;3324;50.796;7.228;2023-07-31T03:17:16;10.80;;;10.40;;
6580;SDS011;3324;50.796;7.228;2023-07-31T03:19:42;11.10;;;10.50;;
6580;SDS011;3324;50.796;7.228;2023-07-31T03:22:08;10.90;;;10.50;;
6580;SDS011;3324;50.796;7.228;2023-07-31T03:24:33;10.90;;;10.50;;
6580;SDS011;3324;50.796;7.228;2023-07-31T03:26:59;11.97;;;11.27;;
6580;SDS011;3324;50.796;7.228;2023-07-31T03:29:25;10.90;;;10.50;;
6580;SDS011;3324;50.796;7.228;2023-07-31T03:31:51;9.90;;;9.60;;
6580;SDS011;3324;50.796;7.228;2023-07-31T03:34:17;9.85;;;9.55;;
6580;SDS011;3324;50.796;7.228;2023-07-31T03:36:42;11.50;;;10.90;;
6580;SDS011;3324;50.796;7.228;2023-07-31T03:39:08;10.80;;;10.40;;
6580;SDS011;3324;50.796;7.228;2023-07-31T03:41:33;10.77;;;10.38;;
6580;SDS011;3324;50.796;7.228;2023-07-31T03:43:59;11.80;;;11.10;;
6580;SDS011;3324;50.796;7.228;2023-07-31T03:46:25;10.50;;;10.10;;
6580;SDS011;3324;50.796;7.228;2023-07-31T03:48:50;10.60;;;10.20;;
6580;SDS011;3324;50.796;7.228;2023-07-31T03:51:16;10.90;;;10.50;;
6580;SDS011;3324;50.796;7.228;2023-07-31T03:53:43;11.20;;;10.60;;
6580;SDS011;3324;50.796;7.228;2023-07-31T03:56:09;11.10;;;10.50;;
6580;SDS011;3324;50.796;7.228;2023-07-31T03:58:34;10.70;;;10.30;;
6580;SDS011;3324;50.796;7.228;2023-07-31T04:01:01;10.70;;;10.30;;
6580;SDS011;3324;50.796;7.228;2023-07-31T04:03:27;10.20;;;9.90;;
6580;SDS011;3324;50.796;7.228;2023-07-31T04:05:54;10.90;;;10.50;;
6580;SDS011;3324;50.796;7.228;2023-07-31T04:08:21;10.90;;;10.50;;
6580;SDS011;3324;50.796;7.228;2023-07-31T04:10:47;10.90;;;10.50;;
6580;SDS011;3324;50.796;7.228;2023-07-31T04:13:13;10.90;;;10.50;;
6580;SDS011;3324;50.796;7.228;2023-07-31T04:15:38;12.30;;;11.50;;
6580;SDS011;3324;50.796;7.228;2023-07-31T04:18:04;11.40;;;10.80;;
6580;SDS011;3324;50.796;7.228;2023-07-31T04:20:30;10.50;;;10.10;;
6580;SDS011;3324;50.796;7.228;2023-07-31T04:22:56;10.67;;;10.27;;
6580;SDS011;3324;50.796;7.228;2023-07-31T04:25:22;10.70;;;10.30;;
6580;SDS011;3324;50.796;7.228;2023-07-31T04:27:47;11.10;;;10.50;;
6580;SDS011;3324;50.796;7.228;2023-07-31T04:30:13;10.80;;;10.40;;
6580;SDS011;3324;50.796;7.228;2023-07-31T04:32:39;10.93;;;10.52;;
6580;SDS011;3324;50.796;7.228;2023-07-31T04:35:04;11.80;;;11.10;;
6580;SDS011;3324;50.796;7.228;2023-07-31T04:37:30;10.70;;;10.30;;
6580;SDS011;3324;50.796;7.228;2023-07-31T04:39:56;10.70;;;10.30;;
6580;SDS011;3324;50.796;7.228;2023-07-31T04:42:22;11.00;;;10.60;;
6580;SDS011;3324;50.796;7.228;2023-07-31T04:44:47;12.40;;;11.30;;
6580;SDS011;3324;50.796;7.228;2023-07-31T04:47:13;11.20;;;10.70;;
6580;SDS011;3324;50.796;7.228;2023-07-31T04:49:38;10.80;;;10.40;;
6580;SDS011;3324;50.796;7.228;2023-07-31T04:52:04;11.30;;;10.70;;
6580;SDS011;3324;50.796;7.228;2023-07-31T04:54:30;9.70;;;9.40;;
6580;SDS011;3324;50.796;7.228;2023-07-31T04:56:56;9.60;;;9.30;;
6580;SDS011;3324;50.796;7.228;2023-07-31T04:59:21;10.40;;;9.90;;
6580;SDS011;3324;50.796;7.228;2023-07-31T05:01:47;9.60;;;9.30;;
6580;SDS011;3324;50.796;7.228;2023-07-31T05:04:13;9.60;;;9.40;;
6580;SDS011;3324;50.796;7.228;2023-07-31T05:06:42;9.40;;;9.20;;
6580;SDS011;3324;50.796;7.228;2023-07-31T05:09:07;9.50;;;9.10;;
6580;SDS011;3324;50.796;7.228;2023-07-31T05:11:34;9.30;;;8.90;;
6580;SDS011;3324;50.796;7.228;2023-07-31T05:14:00;9.93;;;9.43;;
6580;SDS011;3324;50.796;7.228;2023-07-31T05:16:26;9.05;;;8.85;;
6580;SDS011;3324;50.796;7.228;2023-07-31T05:18:51;7.90;;;7.80;;
6580;SDS011;3324;50.796;7.228;2023-07-31T05:21:17;8.80;;;8.40;;
6580;SDS011;3324;50.796;7.228;2023-07-31T05:23:42;4.50;;;4.50;;
6580;SDS011;3324;50.796;7.228;2023-07-31T05:26:08;4.90;;;4.80;;
6580;SDS011;3324;50.796;7.228;2023-07-31T05:28:36;9.00;;;8.60;;
6580;SDS011;3324;50.796;7.228;2023-07-31T05:31:03;8.20;;;8.10;;
6580;SDS011;3324;50.796;7.228;2023-07-31T05:33:29;9.00;;;8.60;;
6580;SDS011;3324;50.796;7.228;2023-07-31T05:35:55;8.33;;;8.20;;
6580;SDS011;3324;50.796;7.228;2023-07-31T05:38:21;8.10;;;8.00;;
6580;SDS011;3324;50.796;7.228;2023-07-31T05:40:47;8.10;;;8.00;;
6580;SDS011;3324;50.796;7.228;2023-07-31T05:43:13;9.30;;;8.90;;
6580;SDS011;3324;50.796;7.228;2023-07-31T05:45:39;9.50;;;9.10;;
6580;SDS011;3324;50.796;7.228;2023-07-31T05:48:05;8.90;;;8.70;;
6580;SDS011;3324;50.796;7.228;2023-07-31T05:50:31;8.30;;;8.20;;
6580;SDS011;3324;50.796;7.228;2023-07-31T05:52:57;8.20;;;8.10;;
6580;SDS011;3324;50.796;7.228;2023-07-31T05:55:22;8.10;;;8.00;;
6580;SDS011;3324;50.796;7.228;2023-07-31T05:57:49;8.90;;;8.50;;
6580;SDS011;3324;50.796;7.228;2023-07-31T06:00:14;7.60;;;7.50;;
6580;SDS011;3324;50.796;7.228;2023-07-31T06:02:41;8.10;;;8.00;;
6580;SDS011;3324;50.796;7.228;2023-07-31T06:05:06;7.35;;;7.25;;
6580;SDS011;3324;50.796;7.228;2023-07-31T06:07:32;8.30;;;8.00;;
6580;SDS011;3324;50.796;7.228;2023-07-31T06:09:58;7.70;;;7.40;;
6580;SDS011;3324;50.796;7.228;2023-07-31T06:12:29;7.00;;;6.90;;
6580;SDS011;3324;50.796;7.228;2023-07-31T06:14:55;6.30;;;6.20;;
6580;SDS011;3324;50.796;7.228;2023-07-31T06:17:20;8.70;;;8.40;;
6580;SDS011;3324;50.796;7.228;2023-07-31T06:19:46;7.70;;;7.60;;
6580;SDS011;3324;50.796;7.228;2023-07-31T06:22:12;7.70;;;7.60;;
6580;SDS011;3324;50.796;7.228;2023-07-31T06:24:37;7.60;;;7.30;;
6580;SDS011;3324;50.796;7.228;2023-07-31T06:27:03;6.40;;;6.30;;
6580;SDS011;3324;50.796;7.228;2023-07-31T06:29:30;6.15;;;6.05;;
6580;SDS011;3324;50.796;7.228;2023-07-31T06:31:55;5.70;;;5.60;;
6580;SDS011;3324;50.796;7.228;2023-07-31T06:34:21;8.10;;;8.00;;
6580;SDS011;3324;50.796;7.228;2023-07-31T06:36:47;9.10;;;8.70;;
6580;SDS011;3324;50.796;7.228;2023-07-31T06:39:12;8.90;;;8.70;;
6580;SDS011;3324;50.796;7.228;2023-07-31T06:41:38;9.45;;;9.25;;
6580;SDS011;3324;50.796;7.228;2023-07-31T06:44:04;9.43;;;9.02;;
6580;SDS011;3324;50.796;7.228;2023-07-31T06:46:30;8.50;;;8.20;;
6580;SDS011;3324;50.796;7.228;2023-07-31T06:48:55;8.00;;;7.90;;
6580;SDS011;3324;50.796;7.228;2023-07-31T06:51:21;8.25;;;8.15;;
6580;SDS011;3324;50.796;7.228;2023-07-31T06:53:46;7.40;;;7.10;;
6580;SDS011;3324;50.796;7.228;2023-07-31T06:56:12;7.87;;;7.77;;
6580;SDS011;3324;50.796;7.228;2023-07-31T06:58:38;8.10;;;8.00;;
6580;SDS011;3324;50.796;7.228;2023-07-31T07:01:04;8.10;;;8.00;;
6580;SDS011;3324;50.796;7.228;2023-07-31T07:03:29;10.07;;;9.60;;
6580;SDS011;3324;50.796;7.228;2023-07-31T07:05:55;10.05;;;9.75;;
6580;SDS011;3324;50.796;7.228;2023-07-31T07:08:21;10.20;;;9.90;;
6580;SDS011;3324;50.796;7.228;2023-07-31T07:10:46;10.70;;;10.30;;
6580;SDS011;3324;50.796;7.228;2023-07-31T07:13:12;11.83;;;11.13;;
6580;SDS011;3324;50.796;7.228;2023-07-31T07:15:38;11.30;;;10.80;;
6580;SDS011;3324;50.796;7.228;2023-07-31T07:18:04;11.10;;;10.60;;
6580;SDS011;3324;50.796;7.228;2023-07-31T07:20:29;11.30;;;10.70;;
6580;SDS011;3324;50.796;7.228;2023-07-31T07:22:55;10.00;;;9.70;;
6580;SDS011;3324;50.796;7.228;2023-07-31T07:25:21;10.20;;;9.90;;
6580;SDS011;3324;50.796;7.228;2023-07-31T07:27:46;9.80;;;9.50;;
6580;SDS011;3324;50.796;7.228;2023-07-31T07:30:12;11.20;;;10.60;;
6580;SDS011;3324;50.796;7.228;2023-07-31T07:32:39;10.50;;;10.00;;
6580;SDS011;3324;50.796;7.228;2023-07-31T07:35:05;8.50;;;8.30;;
6580;SDS011;3324;50.796;7.228;2023-07-31T07:37:31;9.30;;;9.10;;
6580;SDS011;3324;50.796;7.228;2023-07-31T07:39:56;8.00;;;7.90;;
6580;SDS011;3324;50.796;7.228;2023-07-31T07:42:22;10.13;;;9.63;;
6580;SDS011;3324;50.796;7.228;2023-07-31T07:44:48;9.80;;;9.50;;
6580;SDS011;3324;50.796;7.228;2023-07-31T07:47:13;9.40;;;9.20;;
6580;SDS011;3324;50.796;7.228;2023-07-31T07:49:39;9.40;;;9.20;;
6580;SDS011;3324;50.796;7.228;2023-07-31T07:52:05;8.97;;;8.67;;
6580;SDS011;3324;50.796;7.228;2023-07-31T07:54:31;9.40;;;9.20;;
6580;SDS011;3324;50.796;7.228;2023-07-31T07:56:57;9.60;;;9.40;;
6580;SDS011;3324;50.796;7.228;2023-07-31T07:59:22;11.90;;;11.10;;
6580;SDS011;3324;50.796;7.228;2023-07-31T08:01:48;9.40;;;9.20;;
6580;SDS011;3324;50.796;7.228;2023-07-31T08:04:14;9.10;;;8.90;;
6580;SDS011;3324;50.796;7.228;2023-07-31T08:06:39;8.50;;;8.30;;
6580;SDS011;3324;50.796;7.228;2023-07-31T08:09:05;10.60;;;10.10;;
6580;SDS011;3324;50.796;7.228;2023-07-31T08:11:34;10.40;;;10.00;;
6580;SDS011;3324;50.796;7.228;2023-07-31T08:14:00;9.60;;;9.30;;
6580;SDS011;3324;50.796;7.228;2023-07-31T08:16:26;9.60;;;9.30;;
6580;SDS011;3324;50.796;7.228;2023-07-31T08:18:51;10.15;;;9.65;;
6580;SDS011;3324;50.796;7.228;2023-07-31T08:21:17;9.30;;;9.10;;
6580;SDS011;3324;50.796;7.228;2023-07-31T08:23:43;9.30;;;9.10;;
6580;SDS011;3324;50.796;7.228;2023-07-31T08:26:14;9.80;;;9.40;;
6580;SDS011;3324;50.796;7.228;2023-07-31T08:28:40;9.40;;;9.20;;
6580;SDS011;3324;50.796;7.228;2023-07-31T08:31:05;9.70;;;9.40;;
6580;SDS011;3324;50.796;7.228;2023-07-31T08:33:31;9.20;;;9.00;;
6580;SDS011;3324;50.796;7.228;2023-07-31T08:35:57;10.10;;;9.60;;
6580;SDS011;3324;50.796;7.228;2023-07-31T08:38:25;9.10;;;8.70;;
6580;SDS011;3324;50.796;7.228;2023-07-31T08:40:51;8.73;;;8.53;;
6580;SDS011;3324;50.796;7.228;2023-07-31T08:43:17;10.40;;;9.90;;
6580;SDS011;3324;50.796;7.228;2023-07-31T08:45:44;9.90;;;9.50;;
6580;SDS011;3324;50.796;7.228;2023-07-31T08:48:10;10.10;;;9.70;;
6580;SDS011;3324;50.796;7.228;2023-07-31T08:50:36;10.30;;;9.80;;
6580;SDS011;3324;50.796;7.228;2023-07-31T08:53:03;10.80;;;10.20;;
6580;SDS011;3324;50.796;7.228;2023-07-31T08:55:28;9.70;;;9.40;;
6580;SDS011;3324;50.796;7.228;2023-07-31T08:57:56;10.70;;;10.20;;
6580;SDS011;3324;50.796;7.228;2023-07-31T09:00:23;11.00;;;10.40;;
6580;SDS011;3324;50.796;7.228;2023-07-31T09:05:28;10.40;;;9.90;;
6580;SDS011;3324;50.796;7.228;2023-07-31T09:07:56;10.05;;;9.75;;
6580;SDS011;3324;50.796;7.228;2023-07-31T09:10:22;10.30;;;9.90;;
6580;SDS011;3324;50.796;7.228;2023-07-31T09:12:49;10.70;;;10.30;;
6580;SDS011;3324;50.796;7.228;2023-07-31T09:15:16;10.75;;;10.35;;
6580;SDS011;3324;50.796;7.228;2023-07-31T09:17:42;11.30;;;10.80;;
6580;SDS011;3324;50.796;7.228;2023-07-31T09:20:14;11.10;;;10.60;;
6580;SDS011;3324;50.796;7.228;2023-07-31T09:22:42;11.00;;;10.50;;
6580;SDS011;3324;50.796;7.228;2023-07-31T09:27:51;11.60;;;11.00;;
6580;SDS011;3324;50.796;7.228;2023-07-31T09:30:22;11.00;;;10.50;;
6580;SDS011;3324;50.796;7.228;2023-07-31T09:32:48;11.25;;;10.75;;
6580;SDS011;3324;50.796;7.228;2023-07-31T09:37:52;11.35;;;10.65;;
6580;SDS011;3324;50.796;7.228;2023-07-31T09:40:26;10.35;;;9.95;;
6580;SDS011;3324;50.796;7.228;2023-07-31T09:42:57;11.30;;;10.70;;
6580;SDS011;3324;50.796;7.228;2023-07-31T09:45:34;10.50;;;10.10;;
6580;SDS011;3324;50.796;7.228;2023-07-31T09:48:06;11.20;;;10.70;;
6580;SDS011;3324;50.796;7.228;2023-07-31T09:50:34;11.70;;;11.00;;
6580;SDS011;3324;50.796;7.228;2023-07-31T09:53:06;11.50;;;10.80;;
6580;SDS011;3324;50.796;7.228;2023-07-31T09:55:33;11.30;;;10.70;;
6580;SDS011;3324;50.796;7.228;2023-07-31T09:57:59;10.60;;;10.20;;
6580;SDS011;3324;50.796;7.228;2023-07-31T10:00:30;11.45;;;10.75;;
6580;SDS011;3324;50.796;7.228;2023-07-31T10:02:58;10.50;;;10.10;;
6580;SDS011;3324;50.796;7.228;2023-07-31T10:05:27;11.60;;;10.90;;
6580;SDS011;3324;50.796;7.228;2023-07-31T10:07:58;10.70;;;10.30;;
6580;SDS011;3324;50.796;7.228;2023-07-31T10:10:24;11.23;;;10.63;;
6580;SDS011;3324;50.796;7.228;2023-07-31T10:12:51;11.20;;;10.60;;
6580;SDS011;3324;50.796;7.228;2023-07-31T10:15:17;11.35;;;10.65;;
6580;SDS011;3324;50.796;7.228;2023-07-31T10:17:45;11.70;;;11.00;;
6580;SDS011;3324;50.796;7.228;2023-07-31T10:20:12;10.80;;;10.40;;
6580;SDS011;3324;50.796;7.228;2023-07-31T10:22:41;11.00;;;10.50;;
6580;SDS011;3324;50.796;7.228;2023-07-31T10:25:07;11.60;;;10.90;;
6580;SDS011;3324;50.796;7.228;2023-07-31T10:27:35;10.80;;;10.40;;
6580;SDS011;3324;50.796;7.228;2023-07-31T10:30:03;11.70;;;11.00;;
6580;SDS011;3324;50.796;7.228;2023-07-31T10:32:30;10.50;;;10.10;;
6580;SDS011;3324;50.796;7.228;2023-07-31T10:34:56;11.00;;;10.50;;
6580;SDS011;3324;50.796;7.228;2023-07-31T10:37:27;11.67;;;10.97;;
6580;SDS011;3324;50.796;7.228;2023-07-31T10:39:58;10.50;;;10.10;;
6580;SDS011;3324;50.796;7.228;2023-07-31T10:42:30;11.00;;;10.50;;
6580;SDS011;3324;50.796;7.228;2023-07-31T10:45:02;10.80;;;10.40;;
6580;SDS011;3324;50.796;7.228;2023-07-31T10:47:38;10.50;;;10.10;;
6580;SDS011;3324;50.796;7.228;2023-07-31T10:50:10;10.30;;;9.90;;
6580;SDS011;3324;50.796;7.228;2023-07-31T10:52:47;10.70;;;10.20;;
6580;SDS011;3324;50.796;7.228;2023-07-31T10:57:53;9.20;;;9.00;;
6580;SDS011;3324;50.796;7.228;2023-07-31T11:08:26;9.50;;;9.20;;
6580;SDS011;3324;50.796;7.228;2023-07-31T11:13:28;10.80;;;10.30;;
6580;SDS011;3324;50.796;7.228;2023-07-31T11:15:58;11.60;;;11.00;;
6580;SDS011;3324;50.796;7.228;2023-07-31T11:18:24;11.52;;;10.52;;
6580;SDS011;3324;50.796;7.228;2023-07-31T11:20:52;11.20;;;10.70;;
6580;SDS011;3324;50.796;7.228;2023-07-31T11:23:18;10.55;;;10.15;;
6580;SDS011;3324;50.796;7.228;2023-07-31T11:25:44;11.00;;;10.50;;
6580;SDS011;3324;50.796;7.228;2023-07-31T11:28:14;10.90;;;10.30;;
6580;SDS011;3324;50.796;7.228;2023-07-31T11:30:41;10.50;;;10.10;;
6580;SDS011;3324;50.796;7.228;2023-07-31T11:33:08;10.43;;;10.02;;
6580;SDS011;3324;50.796;7.228;2023-07-31T11:35:35;10.60;;;10.20;;
6580;SDS011;3324;50.796;7.228;2023-07-31T11:38:07;10.30;;;9.90;;
6580;SDS011;3324;50.796;7.228;2023-07-31T11:40:40;10.60;;;10.20;;
6580;SDS011;3324;50.796;7.228;2023-07-31T11:43:09;10.40;;;10.00;;
6580;SDS011;3324;50.796;7.228;2023-07-31T11:45:42;10.30;;;9.90;;
6580;SDS011;3324;50.796;7.228;2023-07-31T11:48:26;10.55;;;10.15;;
6580;SDS011;3324;50.796;7.228;2023-07-31T11:50:54;10.90;;;10.30;;
6580;SDS011;3324;50.796;7.228;2023-07-31T11:56:22;9.10;;;8.90;;
6580;SDS011;3324;50.796;7.228;2023-07-31T11:58:51;9.40;;;9.10;;
6580;SDS011;3324;50.796;7.228;2023-07-31T12:01:21;10.00;;;9.70;;
6580;SDS011;3324;50.796;7.228;2023-07-31T12:03:48;10.70;;;10.30;;
6580;SDS011;3324;50.796;7.228;2023-07-31T12:06:14;11.05;;;10.55;;
6580;SDS011;3324;50.796;7.228;2023-07-31T12:08:40;11.20;;;10.70;;
6580;SDS011;3324;50.796;7.228;2023-07-31T12:11:07;10.90;;;10.50;;
6580;SDS011;3324;50.796;7.228;2023-07-31T12:13:34;11.00;;;10.50;;
6580;SDS011;3324;50.796;7.228;2023-07-31T12:16:01;11.00;;;10.50;;
6580;SDS011;3324;50.796;7.228;2023-07-31T12:18:28;11.80;;;11.10;;
6580;SDS011;3324;50.796;7.228;2023-07-31T12:20:58;11.38;;;10.73;;
6580;SDS011;3324;50.796;7.228;2023-07-31T12:23:27;11.30;;;10.80;;
6580;SDS011;3324;50.796;7.228;2023-07-31T12:26:05;12.93;;;11.73;;
6580;SDS011;3324;50.796;7.228;2023-07-31T12:31:15;11.10;;;10.60;;
6580;SDS011;3324;50.796;7.228;2023-07-31T12:33:43;11.30;;;10.80;;
6580;SDS011;3324;50.796;7.228;2023-07-31T12:38:36;12.17;;;11.37;;
6580;SDS011;3324;50.796;7.228;2023-07-31T12:41:02;10.80;;;10.40;;
6580;SDS011;3324;50.796;7.228;2023-07-31T12:43:28;10.40;;;10.00;;
6580;SDS011;3324;50.796;7.228;2023-07-31T12:45:54;11.20;;;10.60;;
6580;SDS011;3324;50.796;7.228;2023-07-31T12:48:21;10.70;;;10.30;;
6580;SDS011;3324;50.796;7.228;2023-07-31T12:50:46;11.70;;;11.00;;
6580;SDS011;3324;50.796;7.228;2023-07-31T12:53:12;11.70;;;11.00;;
6580;SDS011;3324;50.796;7.228;2023-07-31T12:55:38;10.90;;;10.40;;
6580;SDS011;3324;50.796;7.228;2023-07-31T12:58:03;11.20;;;10.70;;
6580;SDS011;3324;50.796;7.228;2023-07-31T13:00:29;11.80;;;11.10;;
6580;SDS011;3324;50.796;7.228;2023-07-31T13:02:55;11.30;;;10.80;;
6580;SDS011;3324;50.796;7.228;2023-07-31T13:05:20;10.90;;;10.40;;
6580;SDS011;3324;50.796;7.228;2023-07-31T13:07:47;11.70;;;11.00;;
6580;SDS011;3324;50.796;7.228;2023-07-31T13:10:13;11.50;;;10.80;;
6580;SDS011;3324;50.796;7.228;2023-07-31T13:12:38;11.30;;;10.80;;
6580;SDS011;3324;50.796;7.228;2023-07-31T13:15:04;11.00;;;10.50;;
6580;SDS011;3324;50.796;7.228;2023-07-31T13:17:31;11.10;;;10.60;;
6580;SDS011;3324;50.796;7.228;2023-07-31T13:19:57;12.30;;;11.50;;
6580;SDS011;3324;50.796;7.228;2023-07-31T13:22:22;11.20;;;10.70;;
6580;SDS011;3324;50.796;7.228;2023-07-31T13:24:48;11.10;;;10.60;;
6580;SDS011;3324;50.796;7.228;2023-07-31T13:27:14;11.20;;;10.70;;
6580;SDS011;3324;50.796;7.228;2023-07-31T13:29:43;11.10;;;10.50;;
6580;SDS011;3324;50.796;7.228;2023-07-31T13:32:09;11.10;;;10.50;;
6580;SDS011;3324;50.796;7.228;2023-07-31T13:34:35;10.80;;;10.40;;
6580;SDS011;3324;50.796;7.228;2023-07-31T13:37:00;11.00;;;10.50;;
6580;SDS011;3324;50.796;7.228;2023-07-31T13:39:26;11.50;;;10.80;;
6580;SDS011;3324;50.796;7.228;2023-07-31T13:41:51;10.80;;;10.40;;
6580;SDS011;3324;50.796;7.228;2023-07-31T13:44:17;11.00;;;10.50;;
6580;SDS011;3324;50.796;7.228;2023-07-31T13:46:43;11.50;;;10.80;;
6580;SDS011;3324;50.796;7.228;2023-07-31T13:49:08;11.10;;;10.60;;
6580;SDS011;3324;50.796;7.228;2023-07-31T13:51:34;10.50;;;10.10;;
6580;SDS011;3324;50.796;7.228;2023-07-31T13:56:26;9.40;;;9.10;;
6580;SDS011;3324;50.796;7.228;2023-07-31T13:58:51;9.70;;;9.40;;
6580;SDS011;3324;50.796;7.228;2023-07-31T14:01:17;9.90;;;9.60;;
6580;SDS011;3324;50.796;7.228;2023-07-31T14:03:43;10.70;;;10.10;;
6580;SDS011;3324;50.796;7.228;2023-07-31T14:06:08;10.70;;;10.30;;
6580;SDS011;3324;50.796;7.228;2023-07-31T14:08:34;11.00;;;10.50;;
6580;SDS011;3324;50.796;7.228;2023-07-31T14:10:59;11.75;;;11.05;;
6580;SDS011;3324;50.796;7.228;2023-07-31T14:13:25;8.70;;;8.50;;
6580;SDS011;3324;50.796;7.228;2023-07-31T14:15:51;8.30;;;8.20;;
6580;SDS011;3324;50.796;7.228;2023-07-31T14:18:17;10.30;;;9.80;;
6580;SDS011;3324;50.796;7.228;2023-07-31T14:20:46;10.20;;;9.90;;
6580;SDS011;3324;50.796;7.228;2023-07-31T14:23:11;8.90;;;8.70;;
6580;SDS011;3324;50.796;7.228;2023-07-31T14:25:37;9.10;;;8.90;;
6580;SDS011;3324;50.796;7.228;2023-07-31T14:28:02;9.40;;;9.00;;
6580;SDS011;3324;50.796;7.228;2023-07-31T14:30:28;9.30;;;9.10;;
6580;SDS011;3324;50.796;7.228;2023-07-31T14:32:54;9.00;;;8.80;;
6580;SDS011;3324;50.796;7.228;2023-07-31T14:35:19;9.40;;;9.00;;
6580;SDS011;3324;50.796;7.228;2023-07-31T14:37:45;7.70;;;7.60;;
6580;SDS011;3324;50.796;7.228;2023-07-31T14:40:11;8.40;;;8.20;;
6580;SDS011;3324;50.796;7.228;2023-07-31T14:42:37;7.60;;;7.50;;
6580;SDS011;3324;50.796;7.228;2023-07-31T14:45:04;8.00;;;7.70;;
6580;SDS011;3324;50.796;7.228;2023-07-31T14:47:31;6.50;;;6.40;;
6580;SDS011;3324;50.796;7.228;2023-07-31T14:49:57;8.30;;;8.00;;
6580;SDS011;3324;50.796;7.228;2023-07-31T14:52:23;9.60;;;9.20;;
6580;SDS011;3324;50.796;7.228;2023-07-31T14:54:49;8.90;;;8.70;;
6580;SDS011;3324;50.796;7.228;2023-07-31T14:57:14;9.10;;;8.90;;
6580;SDS011;3324;50.796;7.228;2023-07-31T14:59:40;9.70;;;9.40;;
6580;SDS011;3324;50.796;7.228;2023-07-31T15:02:06;11.50;;;10.80;;
6580;SDS011;3324;50.796;7.228;2023-07-31T15:04:33;10.10;;;9.80;;
6580;SDS011;3324;50.796;7.228;2023-07-31T15:06:59;10.80;;;10.30;;
6580;SDS011;3324;50.796;7.228;2023-07-31T15:09:25;10.10;;;9.80;;
6580;SDS011;3324;50.796;7.228;2023-07-31T15:11:50;9.70;;;9.40;;
6580;SDS011;3324;50.796;7.228;2023-07-31T15:14:16;11.00;;;10.40;;
6580;SDS011;3324;50.796;7.228;2023-07-31T15:16:42;8.90;;;8.70;;
6580;SDS011;3324;50.796;7.228;2023-07-31T15:19:07;8.40;;;8.20;;
6580;SDS011;3324;50.796;7.228;2023-07-31T15:21:33;9.10;;;8.90;;
6580;SDS011;3324;50.796;7.228;2023-07-31T15:23:58;9.00;;;8.80;;
6580;SDS011;3324;50.796;7.228;2023-07-31T15:26:24;8.90;;;8.70;;
6580;SDS011;3324;50.796;7.228;2023-07-31T15:28:50;9.10;;;8.90;;